Time;durP1;ratioP1;P1;durP2;ratioP2;P2;SDS_P1;SDS_P2;PMS_P1;PMS_P2;Temp;Humidity;BMP_temperature;BMP_pressure;BME280_temperature;BME280_humidity;BME280_pressure;Samples;Min_cycle;Max_cycle;Signal;HPM_P1;HPM_P2
2020/12/09 00:01:58;;;;;;;32.73;12.70;;;0.00;99.90;;;;;;4191282;28;21161;-54
2020/12/09 00:04:00;;;;;;;33.13;13.73;;;0.00;99.90;;;;;;4190146;28;21060;-55
2020/12/09 00:06:02;;;;;;;33.13;13.70;;;0.10;99.90;;;;;;4191256;28;20521;-54
2020/12/09 00:08:03;;;;;;;36.20;13.80;;;0.10;99.90;;;;;;4191153;28;20940;-54
2020/12/09 00:10:05;;;;;;;32.80;13.10;;;0.10;99.90;;;;;;4189446;28;20946;-54
2020/12/09 00:12:07;;;;;;;33.23;13.87;;;0.20;99.90;;;;;;4190871;28;22379;-54
2020/12/09 00:14:09;;;;;;;35.70;13.10;;;0.20;99.90;;;;;;4191346;28;20488;-55
2020/12/09 00:16:11;;;;;;;34.30;13.37;;;0.20;99.90;;;;;;4189760;28;20487;-54
2020/12/09 00:18:12;;;;;;;38.43;14.87;;;0.30;99.90;;;;;;4190874;28;20932;-54
2020/12/09 00:20:14;;;;;;;38.50;14.77;;;0.30;99.90;;;;;;4189955;28;20480;-54
2020/12/09 00:22:16;;;;;;;35.23;14.60;;;0.30;99.90;;;;;;4189889;28;20508;-54
2020/12/09 00:24:20;;;;;;;34.27;13.97;;;0.30;99.90;;;;;;4190829;28;20469;-54
2020/12/09 00:26:22;;;;;;;31.97;14.30;;;0.30;99.90;;;;;;4190195;28;20505;-54
2020/12/09 00:28:24;;;;;;;39.57;15.90;;;0.30;99.90;;;;;;4188416;28;21132;-54
2020/12/09 00:30:25;;;;;;;35.30;13.97;;;0.40;99.90;;;;;;4190917;28;20465;-54
2020/12/09 00:32:26;;;;;;;36.67;14.90;;;0.40;99.90;;;;;;4190299;28;20474;-54
2020/12/09 00:34:28;;;;;;;35.97;14.60;;;0.40;99.90;;;;;;4190601;28;20540;-54
2020/12/09 00:36:30;;;;;;;35.43;14.63;;;0.40;99.90;;;;;;4191068;28;20481;-54
2020/12/09 00:38:31;;;;;;;33.83;14.20;;;0.40;99.90;;;;;;4190138;28;20493;-55
2020/12/09 00:40:33;;;;;;;33.97;13.83;;;0.40;99.90;;;;;;4190152;28;20475;-54
2020/12/09 00:42:35;;;;;;;32.83;13.93;;;0.40;99.90;;;;;;4190122;28;22195;-54
2020/12/09 00:44:36;;;;;;;33.13;13.80;;;0.40;99.90;;;;;;4190964;28;21100;-54
2020/12/09 00:46:37;;;;;;;36.37;15.33;;;0.40;99.90;;;;;;4190288;28;20478;-54
2020/12/09 00:48:39;;;;;;;34.63;14.23;;;0.40;99.90;;;;;;4190179;28;20526;-54
2020/12/09 00:50:40;;;;;;;33.53;13.57;;;0.40;99.90;;;;;;4190130;28;20483;-54
2020/12/09 00:52:43;;;;;;;32.27;13.77;;;0.40;99.90;;;;;;4190195;28;20473;-54
2020/12/09 00:54:44;;;;;;;32.20;13.20;;;0.40;99.90;;;;;;4190013;28;20488;-54
2020/12/09 00:56:46;;;;;;;35.43;13.73;;;0.40;99.90;;;;;;4189695;28;20543;-54
2020/12/09 00:58:47;;;;;;;35.33;12.97;;;0.40;99.90;;;;;;4189089;28;20497;-55
2020/12/09 01:00:48;;;;;;;32.40;13.70;;;0.40;99.90;;;;;;4191297;28;21292;-54
2020/12/09 01:02:50;;;;;;;35.17;14.13;;;0.40;99.90;;;;;;4188451;28;20486;-54
2020/12/09 01:04:51;;;;;;;34.50;14.27;;;0.40;99.90;;;;;;4189785;28;20871;-54
2020/12/09 01:06:53;;;;;;;33.97;13.37;;;0.30;99.90;;;;;;4190053;28;20578;-54
2020/12/09 01:08:55;;;;;;;33.83;13.63;;;0.30;99.90;;;;;;4191040;28;20468;-55
2020/12/09 01:10:57;;;;;;;30.33;12.73;;;0.30;99.90;;;;;;4190759;28;20468;-54
2020/12/09 01:12:58;;;;;;;32.50;12.57;;;0.30;99.90;;;;;;4189328;28;20480;-54
2020/12/09 01:14:59;;;;;;;28.57;12.57;;;0.30;99.90;;;;;;4188999;28;20478;-54
2020/12/09 01:17:00;;;;;;;34.53;12.93;;;0.30;99.90;;;;;;4191479;28;20476;-54
2020/12/09 01:19:02;;;;;;;28.80;12.90;;;0.30;99.90;;;;;;4191145;28;20649;-54
2020/12/09 01:21:03;;;;;;;28.53;12.30;;;0.30;99.90;;;;;;4188770;28;20479;-54
2020/12/09 01:23:05;;;;;;;32.40;12.57;;;0.30;99.90;;;;;;4189847;28;20827;-54
2020/12/09 01:25:07;;;;;;;37.43;13.70;;;0.40;99.90;;;;;;4189297;28;20467;-54
2020/12/09 01:27:08;;;;;;;28.67;12.03;;;0.40;99.90;;;;;;4190805;28;22289;-54
2020/12/09 01:29:10;;;;;;;35.80;13.23;;;0.40;99.90;;;;;;4189923;28;20487;-54
2020/12/09 01:31:11;;;;;;;34.73;13.70;;;0.40;99.90;;;;;;4187432;28;20918;-54
2020/12/09 01:33:12;;;;;;;32.27;12.93;;;0.30;99.90;;;;;;4190634;28;20488;-54
2020/12/09 01:35:14;;;;;;;35.50;13.77;;;0.40;99.90;;;;;;4189257;28;20464;-54
2020/12/09 01:37:15;;;;;;;34.10;13.10;;;0.40;99.90;;;;;;4188155;28;20900;-54
2020/12/09 01:39:16;;;;;;;34.17;13.30;;;0.40;99.90;;;;;;4190235;28;20491;-54
2020/12/09 01:41:19;;;;;;;29.93;12.60;;;0.40;99.90;;;;;;4191124;28;20493;-54
2020/12/09 01:43:20;;;;;;;30.90;12.60;;;0.40;99.90;;;;;;4188742;28;20473;-54
2020/12/09 01:45:22;;;;;;;36.10;13.93;;;0.40;99.90;;;;;;4188567;28;20467;-55
2020/12/09 01:47:25;;;;;;;34.33;13.87;;;0.50;99.90;;;;;;4187692;28;20580;-54
2020/12/09 01:49:27;;;;;;;30.13;13.33;;;0.50;99.90;;;;;;4190331;28;20469;-54
2020/12/09 01:51:30;;;;;;;33.30;12.73;;;0.50;99.90;;;;;;4189661;28;21015;-55
2020/12/09 01:53:31;;;;;;;33.40;13.30;;;0.50;99.90;;;;;;4188506;28;20495;-54
2020/12/09 01:55:33;;;;;;;34.47;12.80;;;0.60;99.90;;;;;;4188970;28;20666;-54
2020/12/09 01:57:35;;;;;;;31.13;12.67;;;0.60;99.90;;;;;;4190336;28;20491;-54
2020/12/09 01:59:38;;;;;;;28.43;12.13;;;0.60;99.90;;;;;;4189119;28;20492;-54
2020/12/09 02:01:39;;;;;;;30.03;12.87;;;0.60;99.90;;;;;;4191468;28;20461;-54
2020/12/09 02:03:40;;;;;;;30.73;12.33;;;0.60;99.90;;;;;;4188797;28;20477;-54
2020/12/09 02:05:42;;;;;;;30.70;12.70;;;0.60;99.90;;;;;;4188845;28;20473;-54
2020/12/09 02:07:43;;;;;;;34.70;13.17;;;0.60;99.90;;;;;;4190224;28;20467;-54
2020/12/09 02:09:55;;;;;;;33.60;12.83;;;0.70;99.90;;;;;;4189520;28;20483;-54
2020/12/09 02:11:57;;;;;;;30.17;12.53;;;0.70;99.90;;;;;;4188047;28;20491;-53
2020/12/09 02:13:59;;;;;;;33.20;12.70;;;0.70;99.90;;;;;;4189331;28;20504;-54
2020/12/09 02:16:01;;;;;;;35.80;13.73;;;0.80;99.90;;;;;;4188558;28;20468;-53
2020/12/09 02:18:03;;;;;;;31.77;13.27;;;0.80;99.90;;;;;;4191325;28;20479;-54
2020/12/09 02:20:08;;;;;;;35.20;13.37;;;0.80;99.90;;;;;;4188161;28;20556;-54
2020/12/09 02:22:11;;;;;;;32.57;13.13;;;0.70;99.90;;;;;;4189324;28;20465;-54
2020/12/09 02:24:12;;;;;;;31.97;13.57;;;0.80;99.90;;;;;;4190089;28;20483;-54
2020/12/09 02:26:13;;;;;;;31.57;12.40;;;0.70;99.90;;;;;;4190972;28;20480;-54
2020/12/09 02:28:15;;;;;;;38.70;13.57;;;0.80;99.90;;;;;;4187109;28;20478;-54
2020/12/09 02:30:16;;;;;;;29.97;12.50;;;0.80;99.90;;;;;;4188611;28;20556;-54
2020/12/09 02:32:17;;;;;;;32.47;13.03;;;0.80;99.90;;;;;;4188702;28;20474;-54
2020/12/09 02:34:19;;;;;;;31.70;13.00;;;0.80;99.90;;;;;;4189276;28;20503;-54
2020/12/09 02:36:20;;;;;;;32.63;14.20;;;0.70;99.90;;;;;;4188075;28;20466;-54
2020/12/09 02:38:22;;;;;;;33.27;12.40;;;0.80;99.90;;;;;;4189034;28;20496;-54
2020/12/09 02:40:24;;;;;;;39.23;14.73;;;0.80;99.90;;;;;;4189471;28;20483;-54
2020/12/09 02:42:25;;;;;;;33.10;13.57;;;0.80;99.90;;;;;;4186973;28;20980;-54
2020/12/09 02:44:27;;;;;;;30.53;12.83;;;0.80;99.90;;;;;;4189495;28;20488;-54
2020/12/09 02:46:28;;;;;;;31.57;12.20;;;0.80;99.90;;;;;;4188848;28;20486;-54
2020/12/09 02:48:30;;;;;;;27.30;12.33;;;0.80;99.90;;;;;;4192036;28;20467;-54
2020/12/09 02:50:31;;;;;;;31.20;13.10;;;0.80;99.90;;;;;;4190010;28;20468;-54
2020/12/09 02:52:32;;;;;;;29.10;12.00;;;0.80;99.90;;;;;;4187325;28;20961;-54
2020/12/09 02:54:34;;;;;;;30.90;12.57;;;0.90;99.90;;;;;;4188189;28;20466;-55
2020/12/09 02:56:36;;;;;;;28.67;12.33;;;0.80;99.90;;;;;;4188732;28;20487;-54
2020/12/09 02:58:37;;;;;;;33.17;13.23;;;0.80;99.90;;;;;;4190726;28;20504;-54
2020/12/09 03:00:38;;;;;;;29.27;12.37;;;0.90;99.90;;;;;;4191523;28;20463;-57
2020/12/09 03:02:40;;;;;;;25.93;11.53;;;0.90;99.90;;;;;;4193245;28;20472;-54
2020/12/09 03:04:41;;;;;;;30.67;12.50;;;0.90;99.90;;;;;;4193045;28;20460;-54
2020/12/09 03:06:42;;;;;;;25.93;11.97;;;0.90;99.90;;;;;;4191121;28;20476;-54
2020/12/09 03:08:44;;;;;;;31.87;12.87;;;0.90;99.90;;;;;;4189520;28;20467;-54
2020/12/09 03:10:46;;;;;;;30.30;12.77;;;0.90;99.90;;;;;;4193196;28;20682;-54
2020/12/09 03:12:47;;;;;;;30.67;12.40;;;1.00;99.90;;;;;;4191125;28;20484;-54
2020/12/09 03:14:49;;;;;;;29.03;12.73;;;1.00;99.90;;;;;;4191340;28;20484;-54
2020/12/09 03:16:50;;;;;;;32.20;12.97;;;1.00;99.90;;;;;;4192435;28;20790;-54
2020/12/09 03:18:51;;;;;;;29.63;12.30;;;1.00;99.90;;;;;;4191904;28;20508;-54
2020/12/09 03:20:52;;;;;;;29.63;11.13;;;1.00;99.90;;;;;;4191566;28;20482;-54
2020/12/09 03:22:54;;;;;;;28.90;12.27;;;1.00;99.90;;;;;;4191793;28;20475;-54
2020/12/09 03:24:55;;;;;;;31.33;12.37;;;1.00;99.90;;;;;;4189808;28;20947;-54
2020/12/09 03:26:57;;;;;;;34.90;13.13;;;1.00;99.90;;;;;;4190150;28;20486;-57
2020/12/09 03:28:59;;;;;;;29.87;12.93;;;1.00;99.90;;;;;;4192069;28;20476;-54
2020/12/09 03:31:00;;;;;;;25.87;11.53;;;1.10;99.90;;;;;;4191640;28;20484;-58
2020/12/09 03:33:01;;;;;;;31.10;12.13;;;1.10;99.90;;;;;;4190803;28;20552;-54
2020/12/09 03:35:03;;;;;;;34.80;12.17;;;1.10;99.90;;;;;;4191257;28;20469;-55
2020/12/09 03:37:04;;;;;;;33.10;13.03;;;1.10;99.90;;;;;;4192273;28;21161;-54
2020/12/09 03:39:05;;;;;;;31.50;12.47;;;1.10;99.90;;;;;;4189192;28;20518;-54
2020/12/09 03:41:07;;;;;;;34.03;12.43;;;1.10;99.90;;;;;;4192480;28;20469;-54
2020/12/09 03:43:09;;;;;;;32.30;12.07;;;1.10;99.90;;;;;;4191874;28;20939;-56
2020/12/09 03:45:10;;;;;;;32.70;13.50;;;1.10;99.90;;;;;;4191678;28;20486;-54
2020/12/09 03:47:12;;;;;;;30.17;12.40;;;1.10;99.90;;;;;;4192561;28;20482;-54
2020/12/09 03:49:13;;;;;;;29.00;12.63;;;1.10;99.90;;;;;;4191390;28;20960;-54
2020/12/09 03:51:14;;;;;;;28.50;11.90;;;1.20;99.90;;;;;;4191359;28;20467;-54
2020/12/09 03:53:16;;;;;;;23.83;11.50;;;1.20;99.90;;;;;;4190942;28;20475;-54
2020/12/09 03:55:17;;;;;;;26.60;12.33;;;1.20;99.90;;;;;;4192263;28;20939;-54
2020/12/09 03:57:18;;;;;;;26.00;11.50;;;1.20;99.90;;;;;;4189925;28;20465;-54
2020/12/09 03:59:21;;;;;;;28.63;11.93;;;1.20;99.90;;;;;;4190543;28;20639;-56
2020/12/09 04:01:22;;;;;;;27.23;11.07;;;1.20;99.90;;;;;;4191014;28;20510;-54
2020/12/09 04:03:23;;;;;;;25.30;10.60;;;1.30;99.90;;;;;;4193097;28;20478;-54
2020/12/09 04:05:25;;;;;;;24.07;11.60;;;1.30;99.90;;;;;;4191665;28;20492;-54
2020/12/09 04:07:26;;;;;;;26.53;10.80;;;1.30;99.90;;;;;;4191581;28;20474;-54
2020/12/09 04:09:27;;;;;;;25.97;10.70;;;1.30;99.90;;;;;;4190226;28;20486;-54
2020/12/09 04:11:28;;;;;;;26.83;11.47;;;1.30;99.90;;;;;;4190589;28;22445;-54
2020/12/09 04:13:30;;;;;;;25.07;11.33;;;1.30;99.90;;;;;;4191617;28;20477;-55
2020/12/09 04:15:32;;;;;;;29.37;11.67;;;1.30;99.90;;;;;;4190501;28;20480;-54
2020/12/09 04:17:33;;;;;;;25.77;12.13;;;1.30;99.90;;;;;;4191275;28;20473;-54
2020/12/09 04:19:35;;;;;;;25.50;11.07;;;1.30;99.90;;;;;;4191154;28;20490;-55
2020/12/09 04:21:36;;;;;;;23.90;10.63;;;1.40;99.90;;;;;;4192289;28;20475;-54
2020/12/09 04:23:37;;;;;;;26.33;11.70;;;1.40;99.90;;;;;;4190889;28;20971;-54
2020/12/09 04:25:39;;;;;;;26.80;11.67;;;1.40;99.90;;;;;;4190269;28;20481;-54
2020/12/09 04:27:40;;;;;;;28.07;12.07;;;1.40;99.90;;;;;;4189027;28;20963;-54
2020/12/09 04:29:41;;;;;;;26.23;12.20;;;1.40;99.90;;;;;;4189993;28;20471;-59
2020/12/09 04:31:43;;;;;;;25.07;11.47;;;1.40;99.90;;;;;;4189613;28;21429;-55
2020/12/09 04:33:53;;;;;;;22.93;11.07;;;1.30;99.90;;;;;;4189798;28;20492;-57
2020/12/09 04:35:55;;;;;;;26.33;10.70;;;1.30;99.90;;;;;;4191421;28;20479;-58
2020/12/09 04:37:56;;;;;;;26.33;11.60;;;1.30;99.90;;;;;;4190183;28;20473;-55
2020/12/09 04:39:58;;;;;;;24.53;10.87;;;1.30;99.90;;;;;;4191435;28;20910;-55
2020/12/09 04:41:59;;;;;;;27.87;11.67;;;1.30;99.90;;;;;;4190942;28;20480;-54
2020/12/09 04:44:01;;;;;;;22.23;11.07;;;1.30;99.90;;;;;;4191227;28;20465;-54
2020/12/09 04:46:02;;;;;;;25.07;10.93;;;1.30;99.90;;;;;;4191350;28;20498;-54
2020/12/09 04:48:09;;;;;;;22.60;10.73;;;1.30;99.90;;;;;;4191867;28;20504;-54
2020/12/09 04:50:13;;;;;;;25.80;11.17;;;1.30;99.90;;;;;;4191309;28;21000;-54
2020/12/09 04:52:42;;;;;;;26.73;11.00;;;1.30;99.90;;;;;;4189332;28;20477;-54
2020/12/09 04:54:45;;;;;;;30.50;11.30;;;1.20;99.90;;;;;;4189159;28;20578;-55
2020/12/09 04:56:54;;;;;;;29.90;12.23;;;1.20;99.90;;;;;;4189175;28;21039;-55
2020/12/09 04:58:57;;;;;;;26.40;11.43;;;1.20;99.90;;;;;;4188742;28;20487;-54
2020/12/09 05:01:05;;;;;;;26.60;11.40;;;1.10;99.90;;;;;;4191447;28;20470;-54
2020/12/09 05:03:14;;;;;;;23.53;10.70;;;1.10;99.90;;;;;;4191399;28;20487;-55
2020/12/09 05:05:17;;;;;;;26.87;11.97;;;1.10;99.90;;;;;;4190905;28;20470;-54
2020/12/09 05:07:24;;;;;;;24.03;11.00;;;1.00;99.90;;;;;;4191150;28;20477;-55
2020/12/09 05:09:28;;;;;;;22.97;10.10;;;1.00;99.90;;;;;;4188253;28;20477;-55
2020/12/09 05:11:29;;;;;;;24.37;11.50;;;0.90;99.90;;;;;;4190204;28;20985;-54
2020/12/09 05:13:33;;;;;;;25.07;11.27;;;0.90;99.90;;;;;;4189321;28;20502;-54
2020/12/09 05:15:38;;;;;;;29.00;12.27;;;0.90;99.90;;;;;;4189214;28;20946;-54
2020/12/09 05:17:54;;;;;;;27.00;11.57;;;0.80;99.90;;;;;;4189879;28;20809;-54
2020/12/09 05:19:56;;;;;;;25.33;11.40;;;0.80;99.90;;;;;;4189192;28;20484;-54
2020/12/09 05:21:59;;;;;;;27.97;11.63;;;0.70;99.90;;;;;;4189030;28;20468;-54
2020/12/09 05:24:01;;;;;;;26.20;11.17;;;0.70;99.90;;;;;;4190769;28;20566;-54
2020/12/09 05:26:03;;;;;;;28.20;11.70;;;0.70;99.90;;;;;;4188527;28;20496;-54
2020/12/09 05:28:04;;;;;;;27.23;11.80;;;0.70;99.90;;;;;;4190506;28;20499;-54
2020/12/09 05:30:06;;;;;;;28.70;12.43;;;0.60;99.90;;;;;;4190475;28;20465;-54
2020/12/09 05:32:07;;;;;;;27.57;11.50;;;0.60;99.90;;;;;;4189992;28;20480;-54
2020/12/09 05:34:26;;;;;;;26.57;12.07;;;0.60;99.90;;;;;;4191424;28;20476;-54
2020/12/09 05:36:46;;;;;;;27.17;11.97;;;0.50;99.90;;;;;;4189159;28;22160;-54
2020/12/09 05:39:04;;;;;;;29.00;12.10;;;0.50;99.90;;;;;;4190844;28;20483;-53
2020/12/09 05:41:10;;;;;;;32.80;13.33;;;0.50;99.90;;;;;;4190249;28;20533;-54
2020/12/09 05:43:13;;;;;;;33.47;12.93;;;0.50;99.90;;;;;;4189878;28;20469;-54
2020/12/09 05:45:14;;;;;;;33.70;13.03;;;0.50;99.90;;;;;;4189069;28;20484;-54
2020/12/09 05:47:17;;;;;;;31.20;12.60;;;0.50;99.90;;;;;;4188057;28;22030;-54
2020/12/09 05:49:20;;;;;;;30.13;12.47;;;0.50;99.90;;;;;;4190858;28;20807;-54
2020/12/09 05:51:21;;;;;;;30.67;10.90;;;0.40;99.90;;;;;;4189476;28;20994;-54
2020/12/09 05:53:25;;;;;;;27.40;12.20;;;0.40;99.90;;;;;;4187879;28;20465;-54
2020/12/09 05:55:26;;;;;;;25.50;10.40;;;0.50;99.90;;;;;;4189489;28;20492;-54
2020/12/09 05:57:27;;;;;;;30.30;11.73;;;0.40;99.90;;;;;;4189189;28;20978;-53
2020/12/09 05:59:37;;;;;;;26.77;11.63;;;0.40;99.90;;;;;;4190018;28;20471;-54
2020/12/09 06:01:38;;;;;;;27.23;12.23;;;0.40;99.90;;;;;;4188953;28;20489;-54
2020/12/09 06:03:41;;;;;;;27.60;11.53;;;0.30;99.90;;;;;;4190010;28;20966;-54
2020/12/09 06:05:53;;;;;;;29.63;11.87;;;0.30;99.90;;;;;;4189991;28;20536;-55
2020/12/09 06:07:55;;;;;;;28.27;11.20;;;0.30;99.90;;;;;;4188868;28;20463;-60
2020/12/09 06:10:12;;;;;;;28.90;12.23;;;0.30;99.90;;;;;;4188983;28;20503;-58
2020/12/09 06:12:14;;;;;;;25.33;10.93;;;0.40;99.90;;;;;;4189139;28;20615;-57
2020/12/09 06:14:17;;;;;;;31.53;11.97;;;0.40;99.90;;;;;;4190035;28;20502;-58
2020/12/09 06:16:20;;;;;;;25.50;10.47;;;0.40;99.90;;;;;;4189401;28;20552;-58
2020/12/09 06:18:21;;;;;;;27.53;11.57;;;0.30;99.90;;;;;;4189983;28;20958;-58
2020/12/09 06:20:27;;;;;;;24.43;10.03;;;0.30;99.90;;;;;;4190884;28;20524;-58
2020/12/09 06:22:31;;;;;;;27.37;11.57;;;0.20;99.90;;;;;;4189860;28;20475;-58
2020/12/09 06:24:32;;;;;;;27.87;11.60;;;0.20;99.90;;;;;;4189552;28;20480;-55
2020/12/09 06:26:34;;;;;;;27.50;11.87;;;0.10;99.90;;;;;;4187437;28;20482;-56
2020/12/09 06:28:38;;;;;;;29.93;12.60;;;0.10;99.90;;;;;;4186595;28;20484;-58
2020/12/09 06:30:40;;;;;;;25.90;11.27;;;0.00;99.90;;;;;;4190665;28;21438;-58
2020/12/09 06:32:47;;;;;;;28.00;11.50;;;-0.10;99.90;;;;;;4190613;28;20455;-58
2020/12/09 06:35:05;;;;;;;26.20;10.63;;;-0.10;99.90;;;;;;4191619;28;21127;-58
2020/12/09 06:37:11;;;;;;;30.57;11.50;;;-0.20;99.90;;;;;;4193736;28;20525;-58
2020/12/09 06:39:17;;;;;;;28.50;12.13;;;-0.20;99.90;;;;;;4192302;28;20876;-57
2020/12/09 06:41:18;;;;;;;29.67;12.33;;;-0.20;99.90;;;;;;4191726;28;20471;-58
2020/12/09 06:43:20;;;;;;;25.37;11.33;;;-0.30;99.90;;;;;;4192725;28;20497;-58
2020/12/09 06:45:41;;;;;;;26.97;10.87;;;-0.30;99.90;;;;;;4194112;28;20978;-58
2020/12/09 06:47:42;;;;;;;29.73;11.80;;;-0.30;99.90;;;;;;4191219;28;20546;-56
2020/12/09 06:49:45;;;;;;;31.63;11.60;;;-0.30;99.90;;;;;;4192266;28;20828;-56
2020/12/09 06:51:46;;;;;;;30.70;12.63;;;-0.30;99.90;;;;;;4192226;28;20541;-57
2020/12/09 06:54:10;;;;;;;29.00;11.40;;;-0.30;99.90;;;;;;4191775;28;20584;-57
2020/12/09 06:56:17;;;;;;;27.60;11.20;;;-0.30;99.90;;;;;;4193004;28;20205;-57
2020/12/09 06:58:22;;;;;;;24.83;10.70;;;-0.40;99.90;;;;;;4191493;28;20572;-57
2020/12/09 07:00:24;;;;;;;28.23;11.63;;;-0.40;99.90;;;;;;4192696;28;20221;-57
2020/12/09 07:02:27;;;;;;;26.97;11.13;;;-0.40;99.90;;;;;;4192645;28;20474;-57
2020/12/09 07:05:13;;;;;;;23.37;10.07;;;-0.40;99.90;;;;;;4191863;28;20559;-57
2020/12/09 07:07:25;;;;;;;23.97;10.83;;;-0.50;99.90;;;;;;4156481;28;20541;-55
2020/12/09 07:09:34;;;;;;;27.30;10.43;;;-0.60;99.90;;;;;;4191992;28;20466;-56
2020/12/09 07:11:53;;;;;;;23.88;10.18;;;-0.50;99.90;;;;;;4191355;28;21258;-56
2020/12/09 07:14:05;;;;;;;25.20;10.70;;;-0.60;99.90;;;;;;4192316;28;20876;-56
2020/12/09 07:16:07;;;;;;;24.13;9.40;;;-0.60;99.90;;;;;;4190253;28;21069;-56
2020/12/09 07:18:09;;;;;;;26.47;10.97;;;-0.60;99.90;;;;;;4191092;28;20472;-56
2020/12/09 07:20:10;;;;;;;24.80;10.13;;;-0.60;99.90;;;;;;4192142;28;20595;-57
2020/12/09 07:22:11;;;;;;;27.30;11.73;;;-0.60;99.90;;;;;;4193271;28;20460;-57
2020/12/09 07:24:13;;;;;;;28.47;10.97;;;-0.60;99.90;;;;;;4191951;28;21171;-57
2020/12/09 07:26:14;;;;;;;26.00;10.97;;;-0.60;99.90;;;;;;4191987;28;20475;-57
2020/12/09 07:28:15;;;;;;;22.67;10.50;;;-0.60;99.90;;;;;;4190905;28;20481;-57
2020/12/09 07:30:19;;;;;;;24.45;11.38;;;-0.60;99.90;;;;;;4192679;28;20493;-57
2020/12/09 07:32:22;;;;;;;28.53;11.70;;;-0.70;99.90;;;;;;4191388;28;20215;-56
2020/12/09 07:34:23;;;;;;;30.00;12.40;;;-0.60;99.90;;;;;;4190212;28;21475;-57
2020/12/09 07:36:24;;;;;;;32.47;13.40;;;-0.60;99.90;;;;;;4192196;28;21200;-56
2020/12/09 07:38:26;;;;;;;32.63;12.87;;;-0.60;99.90;;;;;;4193018;28;20475;-57
2020/12/09 07:40:29;;;;;;;27.97;12.10;;;-0.50;99.90;;;;;;4193327;28;20479;-56
2020/12/09 07:42:30;;;;;;;30.97;12.40;;;-0.50;99.90;;;;;;4192080;28;20467;-57
2020/12/09 07:44:42;;;;;;;30.50;12.87;;;-0.40;99.90;;;;;;4189880;28;20837;-57
2020/12/09 07:46:53;;;;;;;32.67;12.20;;;-0.40;99.90;;;;;;4190753;28;20483;-56
2020/12/09 07:48:54;;;;;;;35.17;13.87;;;-0.40;99.90;;;;;;4191799;28;20489;-57
2020/12/09 07:50:56;;;;;;;27.83;12.33;;;-0.40;99.90;;;;;;4191858;28;20467;-57
2020/12/09 07:52:57;;;;;;;29.07;12.07;;;-0.40;99.90;;;;;;4191188;28;20995;-56
2020/12/09 07:55:01;;;;;;;30.65;12.77;;;-0.40;99.90;;;;;;4193254;28;20482;-56
2020/12/09 07:57:02;;;;;;;29.47;12.97;;;-0.30;99.90;;;;;;4190193;28;20228;-56
2020/12/09 07:59:03;;;;;;;35.23;13.50;;;-0.20;99.90;;;;;;4189399;28;21036;-57
2020/12/09 08:01:05;;;;;;;41.73;15.27;;;-0.10;99.90;;;;;;4189358;28;20474;-57
2020/12/09 08:03:16;;;;;;;37.00;14.67;;;0.00;99.90;;;;;;4189824;28;20495;-56
2020/12/09 08:05:19;;;;;;;39.73;14.93;;;0.10;99.90;;;;;;4189875;28;20482;-57
2020/12/09 08:07:24;;;;;;;33.53;14.53;;;0.20;99.90;;;;;;4190379;28;20479;-58
2020/12/09 08:09:25;;;;;;;33.10;13.23;;;0.30;99.90;;;;;;4191538;28;20465;-57
2020/12/09 08:11:37;;;;;;;30.70;12.97;;;0.30;99.90;;;;;;4190487;28;20493;-57
2020/12/09 08:13:38;;;;;;;31.07;13.03;;;0.30;99.90;;;;;;4190973;28;20475;-57
2020/12/09 08:15:41;;;;;;;34.27;13.17;;;0.20;99.90;;;;;;4191128;28;20972;-57
2020/12/09 08:17:49;;;;;;;33.43;12.57;;;0.20;99.90;;;;;;4190557;28;20473;-57
2020/12/09 08:20:02;;;;;;;32.80;13.53;;;0.10;99.90;;;;;;4190333;28;22572;-56
2020/12/09 08:22:05;;;;;;;31.70;12.53;;;0.10;99.90;;;;;;4192842;28;20943;-57
2020/12/09 08:24:15;;;;;;;33.13;13.23;;;0.10;99.90;;;;;;4190128;28;20476;-57
2020/12/09 08:26:29;;;;;;;31.80;12.67;;;0.10;99.90;;;;;;4191023;28;20460;-57
2020/12/09 08:28:32;;;;;;;31.47;12.47;;;0.10;99.90;;;;;;4191087;28;20491;-57
2020/12/09 08:30:34;;;;;;;32.10;13.33;;;0.10;99.90;;;;;;4191166;28;20515;-57
2020/12/09 08:32:54;;;;;;;29.70;13.23;;;0.10;99.90;;;;;;4190450;28;20483;-56
2020/12/09 08:35:10;;;;;;;28.67;12.43;;;0.20;99.90;;;;;;4191329;28;20465;-57
2020/12/09 08:37:15;;;;;;;36.00;13.37;;;0.30;99.90;;;;;;4190552;28;20475;-56
2020/12/09 08:39:17;;;;;;;32.13;13.17;;;0.30;99.90;;;;;;4191149;28;20485;-56
2020/12/09 08:41:25;;;;;;;31.73;12.57;;;0.30;99.90;;;;;;4191036;28;20915;-56
2020/12/09 08:43:27;;;;;;;34.87;13.77;;;0.40;99.90;;;;;;4191272;28;20468;-57
2020/12/09 08:45:29;;;;;;;40.77;15.17;;;0.50;99.90;;;;;;4190819;28;20490;-57
2020/12/09 08:47:30;;;;;;;31.87;12.70;;;0.70;99.90;;;;;;4190361;28;20484;-57
2020/12/09 08:49:33;;;;;;;26.17;11.67;;;0.80;99.90;;;;;;4191829;28;20470;-57
2020/12/09 08:51:36;;;;;;;29.17;12.37;;;1.00;99.90;;;;;;4189509;28;20530;-57
2020/12/09 08:53:39;;;;;;;28.50;12.37;;;1.10;99.90;;;;;;4191627;28;20472;-57
2020/12/09 08:55:42;;;;;;;27.40;12.20;;;1.20;99.90;;;;;;4189653;28;20480;-57
2020/12/09 08:57:43;;;;;;;30.93;13.23;;;1.30;99.90;;;;;;4191077;28;21001;-56
2020/12/09 08:59:45;;;;;;;29.00;12.47;;;1.50;99.90;;;;;;4188553;28;20508;-57
2020/12/09 09:01:46;;;;;;;31.20;13.57;;;1.50;99.90;;;;;;4190650;28;20478;-57
2020/12/09 09:03:52;;;;;;;30.33;14.10;;;1.60;99.90;;;;;;4189827;28;20501;-57
2020/12/09 09:05:55;;;;;;;35.57;15.40;;;1.70;99.90;;;;;;4189629;28;20988;-57
2020/12/09 09:07:57;;;;;;;35.10;14.13;;;1.80;99.90;;;;;;4191033;28;20479;-57
2020/12/09 09:09:58;;;;;;;32.43;14.17;;;1.90;99.90;;;;;;4190384;28;20470;-57
2020/12/09 09:12:00;;;;;;;32.33;15.23;;;1.90;99.90;;;;;;4191293;28;20476;-57
2020/12/09 09:14:01;;;;;;;34.10;14.47;;;2.00;99.90;;;;;;4189539;28;20943;-58
2020/12/09 09:16:06;;;;;;;34.17;14.60;;;2.10;99.90;;;;;;4189692;28;20486;-58
2020/12/09 09:18:09;;;;;;;32.23;15.00;;;2.20;99.90;;;;;;4189755;28;20482;-57
2020/12/09 09:20:10;;;;;;;34.50;14.83;;;2.20;99.90;;;;;;4189951;28;20495;-57
2020/12/09 09:22:12;;;;;;;37.30;15.67;;;2.30;99.90;;;;;;4189643;28;20487;-58
2020/12/09 09:24:15;;;;;;;35.47;14.53;;;2.30;99.90;;;;;;4189702;28;20478;-58
2020/12/09 09:26:16;;;;;;;32.60;14.57;;;2.40;99.90;;;;;;4189044;28;21368;-58
2020/12/09 09:28:17;;;;;;;31.20;14.17;;;2.40;99.90;;;;;;4188537;28;20484;-58
2020/12/09 09:30:20;;;;;;;34.07;14.50;;;2.50;99.90;;;;;;4188699;28;20509;-58
2020/12/09 09:32:22;;;;;;;30.10;13.63;;;2.60;99.90;;;;;;4189143;28;20553;-57
2020/12/09 09:34:23;;;;;;;35.13;14.77;;;2.70;99.90;;;;;;4189306;28;20466;-58
2020/12/09 09:36:28;;;;;;;31.60;14.80;;;2.80;99.90;;;;;;4188771;28;20475;-57
2020/12/09 09:38:30;;;;;;;35.67;15.77;;;2.90;99.90;;;;;;4189268;28;20467;-61
2020/12/09 09:40:32;;;;;;;32.80;15.33;;;2.90;99.90;;;;;;4188118;28;20499;-58
2020/12/09 09:42:33;;;;;;;34.53;14.97;;;3.00;99.90;;;;;;4188493;28;20469;-56
2020/12/09 09:44:35;;;;;;;35.37;15.03;;;3.10;99.90;;;;;;4187762;28;20472;-58
2020/12/09 09:46:36;;;;;;;35.40;15.40;;;3.10;99.90;;;;;;4188752;28;20977;-58
2020/12/09 09:48:38;;;;;;;36.67;15.13;;;3.20;99.90;;;;;;4188525;28;20471;-58
2020/12/09 09:50:39;;;;;;;33.00;14.60;;;3.30;99.90;;;;;;4188814;28;20475;-58
2020/12/09 09:52:41;;;;;;;34.87;15.30;;;3.30;99.90;;;;;;4191952;28;20479;-58
2020/12/09 09:54:42;;;;;;;31.60;14.80;;;3.30;99.90;;;;;;4188695;28;20477;-58
2020/12/09 09:56:44;;;;;;;30.77;13.90;;;3.40;99.90;;;;;;4189273;28;21895;-58
2020/12/09 09:58:46;;;;;;;29.17;13.87;;;3.40;99.90;;;;;;4189051;28;20492;-58
2020/12/09 10:00:47;;;;;;;31.67;13.83;;;3.40;99.90;;;;;;4191036;28;21040;-58
2020/12/09 10:02:48;;;;;;;29.03;14.33;;;3.50;99.90;;;;;;4189006;28;20481;-58
2020/12/09 10:04:49;;;;;;;31.67;13.80;;;3.60;99.90;;;;;;4190655;28;20464;-58
2020/12/09 10:06:51;;;;;;;29.50;13.20;;;3.60;99.90;;;;;;4189415;28;20463;-62
2020/12/09 10:08:52;;;;;;;27.47;12.47;;;3.60;99.90;;;;;;4190148;28;20479;-57
2020/12/09 10:10:53;;;;;;;28.30;13.07;;;3.60;99.90;;;;;;4190344;28;20475;-58
2020/12/09 10:12:56;;;;;;;37.90;15.33;;;3.70;99.90;;;;;;4189099;28;20468;-61
2020/12/09 10:14:57;;;;;;;37.57;15.53;;;3.80;99.90;;;;;;4188449;28;20466;-58
2020/12/09 10:16:59;;;;;;;39.50;15.07;;;3.80;99.90;;;;;;4186739;28;20487;-59
2020/12/09 10:19:00;;;;;;;45.50;17.33;;;3.80;99.90;;;;;;4189150;28;20910;-57
2020/12/09 10:21:03;;;;;;;42.90;16.13;;;3.80;99.90;;;;;;4188758;28;20481;-58
2020/12/09 10:23:04;;;;;;;32.13;13.97;;;3.80;99.90;;;;;;4187178;28;20960;-58
2020/12/09 10:25:06;;;;;;;34.67;14.43;;;3.90;99.90;;;;;;4187771;28;21085;-57
2020/12/09 10:27:07;;;;;;;32.77;13.97;;;4.00;99.90;;;;;;4189357;28;20479;-57
2020/12/09 10:29:11;;;;;;;35.07;14.87;;;4.00;99.90;;;;;;4188010;28;20481;-57
2020/12/09 10:31:12;;;;;;;28.73;13.37;;;4.10;99.90;;;;;;4189874;28;20866;-57
2020/12/09 10:33:14;;;;;;;29.57;12.57;;;4.10;99.90;;;;;;4190312;28;20468;-58